createdAt,value
2017-05-15T00:00:30.676Z,0
2017-05-15T00:01:30.665Z,0
2017-05-15T00:02:30.647Z,0
2017-05-15T00:03:30.632Z,0
2017-05-15T00:04:30.315Z,0
2017-05-15T00:05:30.620Z,0
2017-05-15T00:06:30.597Z,0
2017-05-15T00:07:30.275Z,0
2017-05-15T00:08:30.263Z,0
2017-05-15T00:09:30.548Z,0
2017-05-15T00:10:30.531Z,0
2017-05-15T00:11:30.535Z,0
2017-05-15T00:12:30.499Z,0
2017-05-15T00:13:30.490Z,0
2017-05-15T00:14:30.471Z,0
2017-05-15T00:15:30.454Z,0
2017-05-15T00:16:30.444Z,0
2017-05-15T00:17:30.431Z,0
2017-05-15T00:18:30.422Z,0
2017-05-15T00:19:30.396Z,0
2017-05-15T00:20:30.393Z,0
2017-05-15T00:21:30.425Z,0
2017-05-15T00:22:30.358Z,0
2017-05-15T00:23:30.340Z,0
2017-05-15T00:24:30.317Z,0
2017-05-15T00:25:30.010Z,0
2017-05-15T00:26:29.993Z,0
2017-05-15T00:27:30.293Z,0
2017-05-15T00:28:30.275Z,0
2017-05-15T00:29:30.265Z,0
2017-05-15T00:30:30.244Z,0
2017-05-15T00:31:30.227Z,0
2017-05-15T00:32:30.202Z,0
2017-05-15T00:33:29.896Z,0
2017-05-15T00:34:30.178Z,0
2017-05-15T00:35:30.159Z,0
2017-05-15T00:36:30.146Z,0
2017-05-15T00:37:30.129Z,0
2017-05-15T00:38:30.117Z,0
2017-05-15T00:39:30.113Z,0
2017-05-15T00:40:30.082Z,0
2017-05-15T00:41:30.066Z,0
2017-05-15T00:42:30.054Z,0
2017-05-15T00:43:30.040Z,0
2017-05-15T00:44:30.025Z,0
2017-05-15T00:45:30.006Z,0
2017-05-15T00:46:29.994Z,0
2017-05-15T00:47:29.675Z,0
2017-05-15T00:48:29.957Z,0
2017-05-15T00:49:29.949Z,0
2017-05-15T00:50:29.934Z,0
2017-05-15T00:51:29.617Z,0
2017-05-15T00:52:29.908Z,0
2017-05-15T00:53:29.891Z,0
2017-05-15T00:54:29.873Z,0
2017-05-15T00:55:29.858Z,0
2017-05-15T00:56:29.842Z,0
2017-05-15T00:57:29.837Z,0
2017-05-15T00:58:29.518Z,0
2017-05-15T00:59:29.803Z,0
2017-05-15T01:00:29.779Z,0
2017-05-15T01:01:29.763Z,0
2017-05-15T01:02:29.753Z,0
2017-05-15T01:03:29.753Z,0
2017-05-15T01:04:29.711Z,0
2017-05-15T01:05:29.705Z,0
2017-05-15T01:06:29.686Z,0
2017-05-15T01:07:29.683Z,0
2017-05-15T01:08:29.353Z,0
2017-05-15T01:09:29.643Z,0
2017-05-15T01:10:29.628Z,0
2017-05-15T01:11:29.614Z,0
2017-05-15T01:12:29.600Z,0
2017-05-15T01:13:29.583Z,0
2017-05-15T01:14:29.572Z,0
2017-05-15T01:15:29.551Z,0
2017-05-15T01:16:29.536Z,0
2017-05-15T01:17:29.522Z,0
2017-05-15T01:18:29.522Z,0
2017-05-15T01:19:29.494Z,0
2017-05-15T01:20:29.473Z,0
2017-05-15T01:21:29.456Z,0
2017-05-15T01:22:29.444Z,0
2017-05-15T01:23:29.423Z,0
2017-05-15T01:24:29.410Z,0
2017-05-15T01:25:29.393Z,0
2017-05-15T01:26:29.384Z,0
2017-05-15T01:27:29.369Z,0
2017-05-15T01:28:29.359Z,0
2017-05-15T01:29:29.342Z,0
2017-05-15T01:30:29.326Z,0
2017-05-15T01:31:29.316Z,0
2017-05-15T01:32:29.054Z,0
2017-05-15T01:33:29.283Z,0
2017-05-15T01:34:29.263Z,0
2017-05-15T01:35:29.248Z,0
2017-05-15T01:36:29.241Z,0
2017-05-15T01:37:29.224Z,0
2017-05-15T01:38:29.209Z,0
2017-05-15T01:39:29.097Z,0
2017-05-15T01:40:29.176Z,0
2017-05-15T01:41:29.159Z,0
2017-05-15T01:42:29.147Z,0
2017-05-15T01:43:29.126Z,0
2017-05-15T01:44:29.371Z,0
2017-05-15T01:45:29.101Z,0
2017-05-15T01:46:29.083Z,0
2017-05-15T01:47:29.070Z,0
2017-05-15T01:48:28.449Z,0
2017-05-15T01:49:28.432Z,0
2017-05-15T01:50:29.016Z,0
2017-05-15T01:51:28.707Z,0
2017-05-15T01:52:28.998Z,0
2017-05-15T01:53:28.979Z,0
2017-05-15T01:54:28.965Z,0
2017-05-15T01:55:28.948Z,0
2017-05-15T01:56:28.942Z,0
2017-05-15T01:57:28.912Z,0
2017-05-15T01:58:28.602Z,0
2017-05-15T01:59:28.933Z,0
2017-05-15T02:00:28.919Z,0
2017-05-15T02:01:28.553Z,0
2017-05-15T02:02:28.840Z,0
2017-05-15T02:03:28.828Z,0
2017-05-15T02:04:28.515Z,0
2017-05-15T02:05:28.791Z,0
2017-05-15T02:06:28.783Z,0
2017-05-15T02:07:28.767Z,0
2017-05-15T02:08:28.749Z,0
2017-05-15T02:09:28.941Z,0
2017-05-15T02:10:28.415Z,0
2017-05-15T02:11:28.704Z,0
2017-05-15T02:12:28.690Z,0
2017-05-15T02:13:28.879Z,0
2017-05-15T02:14:28.666Z,0
2017-05-15T02:15:28.649Z,0
2017-05-15T02:16:28.624Z,0
2017-05-15T02:17:28.623Z,0
2017-05-15T02:18:28.603Z,0
2017-05-15T02:19:28.799Z,0
2017-05-15T02:20:28.576Z,0
2017-05-15T02:21:28.551Z,0
2017-05-15T02:22:28.543Z,0
2017-05-15T02:23:28.225Z,0
2017-05-15T02:24:28.212Z,0
2017-05-15T02:25:28.206Z,0
2017-05-15T02:26:28.482Z,0
2017-05-15T02:27:28.483Z,0
2017-05-15T02:28:28.455Z,0
2017-05-15T02:29:28.444Z,0
2017-05-15T02:30:28.426Z,0
2017-05-15T02:31:28.454Z,0
2017-05-15T02:32:28.403Z,0
2017-05-15T02:33:28.379Z,0
2017-05-15T02:34:28.413Z,0
2017-05-15T02:35:28.352Z,0
2017-05-15T02:36:28.344Z,0
2017-05-15T02:37:28.324Z,0
2017-05-15T02:38:28.021Z,0
2017-05-15T02:39:27.992Z,0
2017-05-15T02:40:28.279Z,0
2017-05-15T02:41:28.266Z,0
2017-05-15T02:42:28.263Z,0
2017-05-15T02:43:28.231Z,0
2017-05-15T02:44:28.222Z,0
2017-05-15T02:45:28.202Z,0
2017-05-15T02:46:28.192Z,0
2017-05-15T02:47:28.173Z,0
2017-05-15T02:48:27.862Z,0
2017-05-15T02:49:41.534Z,0
2017-05-15T02:50:41.522Z,0
2017-05-15T02:51:28.138Z,0
2017-05-15T02:52:28.109Z,0
2017-05-15T02:53:28.288Z,0
2017-05-15T02:54:28.075Z,0
2017-05-15T02:55:28.054Z,0
2017-05-15T02:56:27.743Z,0
2017-05-15T02:57:28.029Z,0
2017-05-15T02:58:28.013Z,0
2017-05-15T02:59:28.010Z,0
2017-05-15T03:00:27.683Z,0
2017-05-15T03:01:27.971Z,0
2017-05-15T03:02:27.957Z,0
2017-05-15T03:03:27.946Z,0
2017-05-15T03:04:27.615Z,0
2017-05-15T03:05:27.914Z,0
2017-05-15T03:06:27.584Z,0
2017-05-15T03:07:27.871Z,0
2017-05-15T03:08:27.878Z,4
2017-05-15T03:09:27.855Z,4
2017-05-15T03:10:27.830Z,4
2017-05-15T03:11:27.859Z,0
2017-05-15T03:12:27.795Z,4
2017-05-15T03:13:27.784Z,4
2017-05-15T03:14:27.774Z,8
2017-05-15T03:15:27.749Z,8
2017-05-15T03:16:27.437Z,8
2017-05-15T03:17:27.726Z,8
2017-05-15T03:18:27.714Z,12
2017-05-15T03:19:27.907Z,16
2017-05-15T03:20:27.699Z,16
2017-05-15T03:21:27.662Z,16
2017-05-15T03:22:27.649Z,20
2017-05-15T03:23:27.630Z,24
2017-05-15T03:24:27.828Z,28
2017-05-15T03:25:40.673Z,32
2017-05-15T03:26:27.581Z,36
2017-05-15T03:27:27.575Z,44
2017-05-15T03:28:27.563Z,44
2017-05-15T03:29:27.545Z,52
2017-05-15T03:30:27.526Z,56
2017-05-15T03:31:27.504Z,64
2017-05-15T03:32:27.197Z,72
2017-05-15T03:33:27.179Z,80
2017-05-15T03:34:27.167Z,88
2017-05-15T03:35:27.448Z,96
2017-05-15T03:36:27.441Z,100
2017-05-15T03:37:27.414Z,112
2017-05-15T03:38:27.441Z,124
2017-05-15T03:39:27.384Z,136
2017-05-15T03:40:27.368Z,144
2017-05-15T03:41:27.349Z,152
2017-05-15T03:42:27.337Z,164
2017-05-15T03:43:27.021Z,176
2017-05-15T03:44:27.313Z,188
2017-05-15T03:45:26.989Z,192
2017-05-15T03:46:27.278Z,200
2017-05-15T03:47:27.266Z,204
2017-05-15T03:48:27.247Z,204
2017-05-15T03:49:26.935Z,216
2017-05-15T03:50:27.219Z,220
2017-05-15T03:51:27.195Z,236
2017-05-15T03:52:27.188Z,244
2017-05-15T03:53:27.170Z,268
2017-05-15T03:54:27.366Z,284
2017-05-15T03:55:40.241Z,304
2017-05-15T03:56:26.825Z,308
2017-05-15T03:57:26.810Z,320
2017-05-15T03:58:27.095Z,328
2017-05-15T03:59:27.338Z,340
2017-05-15T04:00:26.969Z,356
2017-05-15T04:01:27.048Z,380
2017-05-15T04:02:27.034Z,392
2017-05-15T04:03:27.021Z,408
2017-05-15T04:04:27.006Z,436
2017-05-15T04:05:26.991Z,468
2017-05-15T04:06:26.973Z,504
2017-05-15T04:07:26.956Z,508
2017-05-15T04:08:26.946Z,512
2017-05-15T04:09:26.933Z,536
2017-05-15T04:10:26.915Z,576
2017-05-15T04:11:26.896Z,636
2017-05-15T04:12:26.884Z,704
2017-05-15T04:13:26.871Z,768
2017-05-15T04:14:26.855Z,804
2017-05-15T04:15:26.835Z,844
2017-05-15T04:16:26.821Z,860
2017-05-15T04:17:26.802Z,896
2017-05-15T04:18:26.795Z,924
2017-05-15T04:19:26.480Z,940
2017-05-15T04:20:26.763Z,960
2017-05-15T04:21:26.742Z,980
2017-05-15T04:22:26.732Z,1008
2017-05-15T04:23:26.724Z,1024
2017-05-15T04:24:26.705Z,1060
2017-05-15T04:25:26.691Z,1096
2017-05-15T04:26:26.673Z,1088
2017-05-15T04:27:26.660Z,1100
2017-05-15T04:28:26.648Z,1116
2017-05-15T04:29:26.638Z,1084
2017-05-15T04:30:26.611Z,1052
2017-05-15T04:31:26.604Z,1052
2017-05-15T04:32:26.589Z,1108
2017-05-15T04:33:26.577Z,1104
2017-05-15T04:34:26.759Z,1112
2017-05-15T04:35:26.547Z,1148
2017-05-15T04:36:26.531Z,1208
2017-05-15T04:37:26.513Z,1252
2017-05-15T04:38:26.501Z,1284
2017-05-15T04:39:26.189Z,1308
2017-05-15T04:40:26.469Z,1256
2017-05-15T04:41:26.151Z,1292
2017-05-15T04:42:26.445Z,1576
2017-05-15T04:43:26.430Z,1844
2017-05-15T04:44:26.409Z,2140
2017-05-15T04:45:26.396Z,2520
2017-05-15T04:46:26.390Z,3096
2017-05-15T04:47:26.368Z,3780
2017-05-15T04:48:26.351Z,4200
2017-05-15T04:49:26.337Z,4448
2017-05-15T04:50:26.323Z,4600
2017-05-15T04:51:26.311Z,4468
2017-05-15T04:52:26.293Z,4172
2017-05-15T04:53:26.281Z,4104
2017-05-15T04:54:26.277Z,4184
2017-05-15T04:55:26.250Z,4160
2017-05-15T04:56:26.232Z,4176
2017-05-15T04:57:26.220Z,4248
2017-05-15T04:58:26.214Z,4204
2017-05-15T04:59:26.188Z,3972
2017-05-15T05:00:26.078Z,3900
2017-05-15T05:01:26.208Z,3976
2017-05-15T05:02:26.146Z,4216
2017-05-15T05:03:26.133Z,4508
2017-05-15T05:04:26.115Z,4644
2017-05-15T05:05:26.109Z,4768
2017-05-15T05:06:26.089Z,4860
2017-05-15T05:07:26.079Z,5064
2017-05-15T05:08:26.109Z,5312
2017-05-15T05:09:26.043Z,5468
2017-05-15T05:10:25.726Z,5380
2017-05-15T05:11:26.016Z,5128
2017-05-15T05:12:25.997Z,4984
2017-05-15T05:13:25.988Z,5000
2017-05-15T05:14:25.721Z,5148
2017-05-15T05:15:25.954Z,5300
2017-05-15T05:16:25.937Z,5492
2017-05-15T05:17:25.923Z,5852
2017-05-15T05:18:25.914Z,6328
2017-05-15T05:19:25.898Z,6484
2017-05-15T05:20:25.878Z,6636
2017-05-15T05:21:25.872Z,6720
2017-05-15T05:22:25.854Z,6828
2017-05-15T05:23:25.838Z,6700
2017-05-15T05:24:25.833Z,6508
2017-05-15T05:25:25.805Z,6356
2017-05-15T05:26:25.791Z,6264
2017-05-15T05:27:25.780Z,6404
2017-05-15T05:28:25.766Z,6620
2017-05-15T05:29:25.750Z,6880
2017-05-15T05:30:25.743Z,7112
2017-05-15T05:31:25.726Z,7376
2017-05-15T05:32:25.714Z,7620
2017-05-15T05:33:25.695Z,8004
2017-05-15T05:34:25.683Z,8664
2017-05-15T05:35:25.666Z,9668
2017-05-15T05:36:25.658Z,10676
2017-05-15T05:37:25.036Z,12144
2017-05-15T05:38:25.631Z,13704
2017-05-15T05:39:25.316Z,14040
2017-05-15T05:40:25.297Z,14368
2017-05-15T05:41:25.599Z,14324
2017-05-15T05:42:25.274Z,13548
2017-05-15T05:43:25.559Z,12256
2017-05-15T05:44:25.541Z,11240
2017-05-15T05:45:25.238Z,11392
2017-05-15T05:46:25.215Z,11488
2017-05-15T05:47:25.202Z,10776
2017-05-15T05:48:25.504Z,10128
2017-05-15T05:49:25.491Z,9960
2017-05-15T05:50:25.474Z,9976
2017-05-15T05:51:25.467Z,10152
2017-05-15T05:52:25.449Z,10204
2017-05-15T05:53:25.122Z,10188
2017-05-15T05:54:25.435Z,10064
2017-05-15T05:55:25.389Z,10008
2017-05-15T05:56:25.379Z,10236
2017-05-15T05:57:25.062Z,10828
2017-05-15T05:58:25.353Z,11444
2017-05-15T05:59:25.338Z,11796
2017-05-15T06:00:25.327Z,12212
2017-05-15T06:01:25.308Z,12896
2017-05-15T06:02:25.295Z,13384
2017-05-15T06:03:24.978Z,13976
2017-05-15T06:04:25.270Z,14628
2017-05-15T06:05:25.292Z,14944
2017-05-15T06:06:25.236Z,15012
2017-05-15T06:07:25.227Z,15136
2017-05-15T06:08:25.210Z,15128
2017-05-15T06:09:25.197Z,15004
2017-05-15T06:10:25.192Z,14824
2017-05-15T06:11:25.171Z,14692
2017-05-15T06:12:25.155Z,14976
2017-05-15T06:13:25.138Z,15120
2017-05-15T06:14:25.131Z,15300
2017-05-15T06:15:25.124Z,15620
2017-05-15T06:16:25.107Z,16104
2017-05-15T06:17:25.093Z,16324
2017-05-15T06:18:25.081Z,16296
2017-05-15T06:19:25.076Z,16744
2017-05-15T06:20:25.048Z,16880
2017-05-15T06:21:25.081Z,16736
2017-05-15T06:22:25.025Z,16700
2017-05-15T06:23:25.011Z,16652
2017-05-15T06:24:25.003Z,16532
2017-05-15T06:25:24.989Z,16260
2017-05-15T06:26:24.977Z,15780
2017-05-15T06:27:24.968Z,15508
2017-05-15T06:28:24.951Z,15688
2017-05-15T06:29:24.942Z,16652
2017-05-15T06:30:24.923Z,18624
2017-05-15T06:31:24.908Z,20576
2017-05-15T06:32:24.899Z,22080
2017-05-15T06:33:24.883Z,23648
2017-05-15T06:34:24.872Z,25664
2017-05-15T06:35:24.864Z,27936
2017-05-15T06:36:24.844Z,31168
2017-05-15T06:37:24.834Z,32608
2017-05-15T06:38:24.821Z,30688
2017-05-15T06:39:24.817Z,26976
2017-05-15T06:40:24.797Z,24608
2017-05-15T06:41:24.786Z,25376
2017-05-15T06:42:24.775Z,28192
2017-05-15T06:43:24.758Z,28672
2017-05-15T06:44:24.743Z,25216
2017-05-15T06:45:24.737Z,19392
2017-05-15T06:46:24.725Z,21024
2017-05-15T06:47:24.708Z,26496
2017-05-15T06:48:24.711Z,30912
2017-05-15T06:49:24.688Z,30592
2017-05-15T06:50:24.667Z,27648
2017-05-15T06:51:24.659Z,24576
2017-05-15T06:52:24.648Z,24064
2017-05-15T06:53:24.634Z,24960
2017-05-15T06:54:24.622Z,26464
2017-05-15T06:55:24.007Z,27008
2017-05-15T06:56:24.596Z,26592
2017-05-15T06:57:24.583Z,25024
2017-05-15T06:58:24.566Z,23200
2017-05-15T06:59:24.561Z,25216
2017-05-15T07:00:24.229Z,29344
2017-05-15T07:01:24.531Z,30688
2017-05-15T07:02:24.517Z,32192
2017-05-15T07:03:24.501Z,33632
2017-05-15T07:04:24.492Z,34720
2017-05-15T07:05:24.480Z,35296
2017-05-15T07:06:24.161Z,37248
2017-05-15T07:07:24.149Z,38848
2017-05-15T07:08:24.441Z,40032
2017-05-15T07:09:24.425Z,41312
2017-05-15T07:10:24.410Z,42080
2017-05-15T07:11:24.405Z,42720
2017-05-15T07:12:24.391Z,42080
2017-05-15T07:13:24.381Z,41888
2017-05-15T07:14:24.061Z,40896
2017-05-15T07:15:24.351Z,40096
2017-05-15T07:16:24.037Z,40160
2017-05-15T07:17:24.327Z,40960
2017-05-15T07:18:24.020Z,41728
2017-05-15T07:19:24.310Z,43488
2017-05-15T07:20:24.297Z,44128
2017-05-15T07:21:24.279Z,43072
2017-05-15T07:22:24.264Z,40032
2017-05-15T07:23:24.257Z,37440
2017-05-15T07:24:23.947Z,35488
2017-05-15T07:25:24.237Z,33728
2017-05-15T07:26:24.223Z,32640
2017-05-15T07:27:24.213Z,31776
2017-05-15T07:28:24.200Z,31168
2017-05-15T07:29:24.250Z,30656
2017-05-15T07:30:24.170Z,30144
2017-05-15T07:31:24.162Z,29568
2017-05-15T07:32:24.152Z,29248
2017-05-15T07:33:23.840Z,29536
2017-05-15T07:34:24.181Z,30336
2017-05-15T07:35:24.174Z,31616
2017-05-15T07:36:23.808Z,33504
2017-05-15T07:37:24.089Z,35136
2017-05-15T07:38:24.073Z,36448
2017-05-15T07:39:24.068Z,37856
2017-05-15T07:40:24.048Z,38240
2017-05-15T07:41:24.038Z,39744
2017-05-15T07:42:24.020Z,40224
2017-05-15T07:43:24.015Z,39840
2017-05-15T07:44:24.007Z,39616
2017-05-15T07:45:23.991Z,39264
2017-05-15T07:46:23.981Z,38816
2017-05-15T07:47:23.967Z,37408
2017-05-15T07:48:23.947Z,35712
2017-05-15T07:49:23.948Z,34240
2017-05-15T07:50:23.932Z,33728
2017-05-15T07:51:23.922Z,33408
2017-05-15T07:52:23.909Z,33120
2017-05-15T07:53:23.892Z,32416
2017-05-15T07:54:23.882Z,31616
2017-05-15T07:55:23.876Z,31520
2017-05-15T07:56:23.866Z,32704
2017-05-15T07:57:23.852Z,34624
2017-05-15T07:58:23.841Z,36768
2017-05-15T07:59:23.869Z,39680
2017-05-15T08:00:23.818Z,44224
2017-05-15T08:01:23.498Z,45952
2017-05-15T08:02:23.491Z,48064
2017-05-15T08:03:23.788Z,50592
2017-05-15T08:04:23.826Z,52672
2017-05-15T08:05:23.751Z,52640
2017-05-15T08:06:23.743Z,54656
2017-05-15T08:07:23.737Z,56512
2017-05-15T08:08:23.725Z,59104
2017-05-15T08:09:23.409Z,61536
2017-05-15T08:10:23.693Z,60288
2017-05-15T08:11:23.383Z,58624
2017-05-15T08:12:23.682Z,59072
2017-05-15T08:13:23.673Z,58560
2017-05-15T08:14:23.659Z,56416
2017-05-15T08:15:23.336Z,53984
2017-05-15T08:16:23.326Z,51872
2017-05-15T08:17:23.624Z,49952
2017-05-15T08:18:23.310Z,47680
2017-05-15T08:19:23.602Z,46880
2017-05-15T08:20:23.587Z,45888
2017-05-15T08:21:23.579Z,44832
2017-05-15T08:22:23.570Z,43008
2017-05-15T08:23:23.560Z,40672
2017-05-15T08:24:23.541Z,38592
2017-05-15T08:25:22.927Z,37280
2017-05-15T08:26:22.918Z,37248
2017-05-15T08:27:23.507Z,37376
2017-05-15T08:28:23.199Z,37568
2017-05-15T08:29:23.489Z,39936
2017-05-15T08:30:23.480Z,44832
2017-05-15T08:31:23.467Z,49504
2017-05-15T08:32:23.451Z,54688
2017-05-15T08:33:23.442Z,57792
2017-05-15T08:34:23.445Z,60000
2017-05-15T08:35:23.133Z,64128
2017-05-15T08:36:23.402Z,68448
2017-05-15T08:37:23.397Z,72928
2017-05-15T08:38:23.094Z,85152
2017-05-15T08:39:23.081Z,77280
2017-05-15T08:40:23.364Z,74400
2017-05-15T08:41:23.352Z,74368
2017-05-15T08:42:23.326Z,74624
2017-05-15T08:43:23.030Z,73632
2017-05-15T08:44:23.310Z,72864
2017-05-15T08:45:23.305Z,74272
2017-05-15T08:46:23.279Z,73600
2017-05-15T08:47:22.969Z,75776
2017-05-15T08:48:23.267Z,78848
2017-05-15T08:49:23.295Z,82784
2017-05-15T08:50:23.236Z,83616
2017-05-15T08:51:22.931Z,87840
2017-05-15T08:52:23.212Z,86080
2017-05-15T08:53:23.208Z,78304
2017-05-15T08:54:23.193Z,72864
2017-05-15T08:55:23.185Z,68512
2017-05-15T08:56:23.168Z,66592
2017-05-15T08:57:23.168Z,65632
2017-05-15T08:58:22.847Z,65120
2017-05-15T08:59:23.146Z,63744
2017-05-15T09:00:23.134Z,62784
2017-05-15T09:01:23.120Z,61536
2017-05-15T09:02:23.107Z,60768
2017-05-15T09:03:23.096Z,60832
2017-05-15T09:04:23.076Z,60640
2017-05-15T09:05:23.063Z,59968
2017-05-15T09:06:23.066Z,59008
2017-05-15T09:07:23.050Z,58784
2017-05-15T09:08:23.042Z,58368
2017-05-15T09:09:22.416Z,57216
2017-05-15T09:10:23.011Z,55808
2017-05-15T09:11:22.990Z,55104
2017-05-15T09:12:22.973Z,54592
2017-05-15T09:13:22.969Z,53952
2017-05-15T09:14:22.950Z,53376
2017-05-15T09:15:22.943Z,53344
2017-05-15T09:16:22.926Z,53440
2017-05-15T09:17:22.614Z,54112
2017-05-15T09:18:22.605Z,54816
2017-05-15T09:19:22.592Z,54208
2017-05-15T09:20:22.880Z,54720
2017-05-15T09:21:22.608Z,56192
2017-05-15T09:22:22.852Z,57024
2017-05-15T09:23:22.835Z,58432
2017-05-15T09:24:22.828Z,59232
2017-05-15T09:25:22.817Z,60192
2017-05-15T09:26:22.551Z,61792
2017-05-15T09:27:22.486Z,59264
2017-05-15T09:28:22.779Z,58464
2017-05-15T09:29:22.759Z,56640
2017-05-15T09:30:22.746Z,61952
2017-05-15T09:31:22.727Z,85792
2017-05-15T09:32:22.719Z,99680
2017-05-15T09:33:22.402Z,101568
2017-05-15T09:34:22.393Z,107104
2017-05-15T09:35:22.682Z,117088
2017-05-15T09:36:22.663Z,133696
2017-05-15T09:37:22.660Z,143296
2017-05-15T09:38:22.642Z,135072
2017-05-15T09:39:22.681Z,140896
2017-05-15T09:40:22.009Z,107328
2017-05-15T09:41:22.300Z,125536
2017-05-15T09:42:22.593Z,105440
2017-05-15T09:43:22.582Z,123424
2017-05-15T09:44:22.571Z,132160
2017-05-15T09:45:22.256Z,113216
2017-05-15T09:46:22.245Z,138272
2017-05-15T09:47:22.235Z,141920
2017-05-15T09:48:22.217Z,137856
2017-05-15T09:49:22.205Z,145440
2017-05-15T09:50:22.492Z,151264
2017-05-15T09:51:22.214Z,156960
2017-05-15T09:52:22.470Z,164416
2017-05-15T09:53:22.161Z,176032
2017-05-15T09:54:22.448Z,151424
2017-05-15T09:55:22.139Z,138752
2017-05-15T09:56:22.124Z,97504
2017-05-15T09:57:22.415Z,89504
2017-05-15T09:58:22.404Z,87584
2017-05-15T09:59:22.399Z,87136
2017-05-15T10:00:22.391Z,84896
2017-05-15T10:01:22.374Z,82784
2017-05-15T10:02:22.364Z,82144
2017-05-15T10:03:22.358Z,79808
2017-05-15T10:04:22.040Z,77856
2017-05-15T10:05:22.330Z,74016
2017-05-15T10:06:22.321Z,71968
2017-05-15T10:07:22.317Z,69504
2017-05-15T10:08:21.999Z,64224
2017-05-15T10:09:21.990Z,61376
2017-05-15T10:10:22.271Z,58784
2017-05-15T10:11:22.269Z,57088
2017-05-15T10:12:22.250Z,60512
2017-05-15T10:13:21.641Z,86976
2017-05-15T10:14:22.231Z,53280
2017-05-15T10:15:22.218Z,46080
2017-05-15T10:16:22.204Z,46912
2017-05-15T10:17:22.190Z,45760
2017-05-15T10:18:22.176Z,46624
2017-05-15T10:19:22.172Z,47904
2017-05-15T10:20:21.853Z,47360
2017-05-15T10:21:22.148Z,51520
2017-05-15T10:22:21.831Z,54560
2017-05-15T10:23:22.118Z,75648
2017-05-15T10:24:22.104Z,60672
2017-05-15T10:25:22.089Z,80928
2017-05-15T10:26:22.078Z,163616
2017-05-15T10:27:22.069Z,219424
2017-05-15T10:28:21.753Z,212032
2017-05-15T10:29:22.048Z,160352
2017-05-15T10:30:21.736Z,41952
2017-05-15T10:31:22.016Z,40704
2017-05-15T10:32:22.007Z,40096
2017-05-15T10:33:21.993Z,43008
2017-05-15T10:34:21.984Z,44608
2017-05-15T10:35:21.363Z,48992
2017-05-15T10:36:21.657Z,53696
2017-05-15T10:37:21.950Z,57920
2017-05-15T10:38:21.983Z,57824
2017-05-15T10:39:21.919Z,53888
2017-05-15T10:40:21.606Z,49824
2017-05-15T10:41:21.896Z,48224
2017-05-15T10:42:21.585Z,46560
2017-05-15T10:43:21.569Z,45600
2017-05-15T10:44:21.866Z,44736
2017-05-15T10:45:21.853Z,44448
2017-05-15T10:46:21.839Z,44128
2017-05-15T10:47:21.826Z,43616
2017-05-15T10:48:21.840Z,43712
2017-05-15T10:49:21.804Z,44352
2017-05-15T10:50:21.492Z,44928
2017-05-15T10:51:21.788Z,45696
2017-05-15T10:52:21.469Z,47392
2017-05-15T10:53:21.459Z,49440
2017-05-15T10:54:21.449Z,51136
2017-05-15T10:55:21.439Z,52160
2017-05-15T10:56:21.462Z,52928
2017-05-15T10:57:21.110Z,53536
2017-05-15T10:58:21.710Z,54208
2017-05-15T10:59:21.697Z,54848
2017-05-15T11:00:21.686Z,55488
2017-05-15T11:01:21.675Z,56256
2017-05-15T11:02:21.660Z,56928
2017-05-15T11:03:21.351Z,57856
2017-05-15T11:04:21.645Z,58944
2017-05-15T11:05:21.631Z,59456
2017-05-15T11:06:21.324Z,60096
2017-05-15T11:07:21.310Z,61312
2017-05-15T11:08:20.995Z,62688
2017-05-15T11:09:21.592Z,64896
2017-05-15T11:10:21.278Z,67680
2017-05-15T11:11:21.572Z,71136
2017-05-15T11:12:21.562Z,73888
2017-05-15T11:13:21.553Z,77024
2017-05-15T11:14:21.547Z,79680
2017-05-15T11:15:21.223Z,82688
2017-05-15T11:16:21.215Z,83904
2017-05-15T11:17:21.508Z,86816
2017-05-15T11:18:21.192Z,88256
2017-05-15T11:19:21.182Z,87872
2017-05-15T11:20:21.465Z,85632
2017-05-15T11:21:21.157Z,83296
2017-05-15T11:22:21.445Z,81472
2017-05-15T11:23:21.439Z,80960
2017-05-15T11:24:21.425Z,81728
2017-05-15T11:25:21.417Z,81696
2017-05-15T11:26:21.407Z,81376
2017-05-15T11:27:21.091Z,80160
2017-05-15T11:28:21.386Z,78080
2017-05-15T11:29:21.069Z,76448
2017-05-15T11:30:21.368Z,75584
2017-05-15T11:31:21.349Z,76256
2017-05-15T11:32:21.343Z,78592
2017-05-15T11:33:21.337Z,81440
2017-05-15T11:34:21.085Z,83072
2017-05-15T11:35:21.317Z,81440
2017-05-15T11:36:21.315Z,81024
2017-05-15T11:37:21.298Z,84928
2017-05-15T11:38:21.286Z,154656
2017-05-15T11:39:21.285Z,107296
2017-05-15T11:40:21.277Z,90848
2017-05-15T11:41:21.260Z,100480
2017-05-15T11:42:20.956Z,71104
2017-05-15T11:43:20.951Z,61408
2017-05-15T11:44:21.235Z,57216
2017-05-15T11:45:21.231Z,53472
2017-05-15T11:46:21.224Z,53600
2017-05-15T11:47:21.211Z,54848
2017-05-15T11:48:21.211Z,59872
2017-05-15T11:49:21.205Z,74080
2017-05-15T11:50:21.184Z,91136
2017-05-15T11:51:21.178Z,91776
2017-05-15T11:52:20.557Z,99104
2017-05-15T11:53:20.850Z,94912
2017-05-15T11:54:20.852Z,87360
2017-05-15T11:55:21.132Z,91776
2017-05-15T11:56:20.825Z,105248
2017-05-15T11:57:21.113Z,117088
2017-05-15T11:58:21.106Z,112576
2017-05-15T11:59:20.492Z,124288
2017-05-15T12:00:21.086Z,130560
2017-05-15T12:01:21.073Z,108384
2017-05-15T12:02:20.766Z,90816
2017-05-15T12:03:21.053Z,80448
2017-05-15T12:04:20.745Z,87936
2017-05-15T12:05:20.738Z,83840
2017-05-15T12:06:21.032Z,80640
2017-05-15T12:07:21.020Z,66112
2017-05-15T12:08:20.715Z,58752
2017-05-15T12:09:20.700Z,58048
2017-05-15T12:10:20.990Z,57024
2017-05-15T12:11:20.985Z,55424
2017-05-15T12:12:20.982Z,54400
2017-05-15T12:13:20.972Z,54368
2017-05-15T12:14:20.950Z,53568
2017-05-15T12:15:20.939Z,52864
2017-05-15T12:16:20.664Z,53152
2017-05-15T12:17:20.920Z,55840
2017-05-15T12:18:20.908Z,58720
2017-05-15T12:19:20.601Z,59264
2017-05-15T12:20:20.882Z,62144
2017-05-15T12:21:20.572Z,66816
2017-05-15T12:22:20.862Z,66464
2017-05-15T12:23:20.854Z,66016
2017-05-15T12:24:20.539Z,66176
2017-05-15T12:25:20.824Z,65792
2017-05-15T12:26:20.515Z,62720
2017-05-15T12:27:20.803Z,60640
2017-05-15T12:28:20.793Z,60608
2017-05-15T12:29:20.781Z,62144
2017-05-15T12:30:20.768Z,63936
2017-05-15T12:31:20.761Z,65184
2017-05-15T12:32:20.438Z,66752
2017-05-15T12:33:20.431Z,68640
2017-05-15T12:34:20.719Z,68000
2017-05-15T12:35:20.761Z,66176
2017-05-15T12:36:20.726Z,65152
2017-05-15T12:37:20.380Z,63680
2017-05-15T12:38:20.677Z,65536
2017-05-15T12:39:20.655Z,72000
2017-05-15T12:40:20.650Z,80512
2017-05-15T12:41:20.340Z,79680
2017-05-15T12:42:20.624Z,79776
2017-05-15T12:43:20.616Z,85920
2017-05-15T12:44:20.611Z,98560
2017-05-15T12:45:20.588Z,121856
2017-05-15T12:46:20.587Z,100256
2017-05-15T12:47:20.569Z,101344
2017-05-15T12:48:20.564Z,105376
2017-05-15T12:49:20.548Z,108096
2017-05-15T12:50:20.535Z,131456
2017-05-15T12:51:20.526Z,104128
2017-05-15T12:52:20.515Z,119648
2017-05-15T12:53:20.509Z,150368
2017-05-15T12:54:20.494Z,93504
2017-05-15T12:55:20.186Z,91968
2017-05-15T12:56:20.477Z,76608
2017-05-15T12:57:20.464Z,70080
2017-05-15T12:58:20.456Z,67744
2017-05-15T12:59:20.439Z,68096
2017-05-15T13:00:20.428Z,67008
2017-05-15T13:01:20.416Z,63936
2017-05-15T13:02:20.409Z,58752
2017-05-15T13:03:20.099Z,56544
2017-05-15T13:04:20.388Z,52704
2017-05-15T13:05:20.373Z,50688
2017-05-15T13:06:20.365Z,48736
2017-05-15T13:07:20.355Z,48960
2017-05-15T13:08:20.340Z,49728
2017-05-15T13:09:20.389Z,51552
2017-05-15T13:10:20.314Z,54048
2017-05-15T13:11:20.302Z,55712
2017-05-15T13:12:20.283Z,55584
2017-05-15T13:13:20.274Z,58976
2017-05-15T13:14:20.263Z,57312
2017-05-15T13:15:19.945Z,50720
2017-05-15T13:16:19.934Z,50912
2017-05-15T13:17:19.928Z,52672
2017-05-15T13:18:19.912Z,44576
2017-05-15T13:19:19.898Z,43840
2017-05-15T13:20:20.188Z,44832
2017-05-15T13:21:20.175Z,41920
2017-05-15T13:22:19.862Z,42144
2017-05-15T13:23:20.153Z,43488